Time;durP1;ratioP1;P1;durP2;ratioP2;P2;SDS_P1;SDS_P2;PMS_P1;PMS_P2;Temp;Humidity;BMP_temperature;BMP_pressure;BME280_temperature;BME280_humidity;BME280_pressure;Samples;Min_cycle;Max_cycle;Signal;HPM_P1;HPM_P2
2023/05/27 00:01:51;;;;;;;;;;;20.90;54.90;;;;;;5065722;28;19935;-72
2023/05/27 00:04:17;;;;;;;;;;;20.80;54.90;;;;;;5065754;28;19950;-71
2023/05/27 00:06:44;;;;;;;;;;;20.80;54.90;;;;;;5064154;28;19932;-71
2023/05/27 00:09:11;;;;;;;;;;;20.80;55.00;;;;;;5073841;28;20282;-71
2023/05/27 00:11:37;;;;;;;;;;;20.70;54.90;;;;;;5059369;28;19971;-70
2023/05/27 00:14:04;;;;;;;;;;;20.70;54.90;;;;;;5063954;28;19936;-72
2023/05/27 00:16:31;;;;;;;;;;;20.70;55.20;;;;;;5060017;28;19951;-70
2023/05/27 00:18:59;;;;;;;;;;;20.60;55.20;;;;;;5057267;28;19938;-70
2023/05/27 00:21:25;;;;;;;;;;;20.50;55.20;;;;;;5059064;28;19924;-71
2023/05/27 00:23:52;;;;;;;;;;;20.50;55.20;;;;;;5061526;28;19928;-70
2023/05/27 00:26:19;;;;;;;;;;;20.50;55.30;;;;;;5071723;28;20001;-70
2023/05/27 00:28:45;;;;;;;;;;;20.40;55.50;;;;;;5059227;28;19932;-71
2023/05/27 00:31:12;;;;;;;;;;;20.40;55.40;;;;;;5068890;28;19928;-71
2023/05/27 00:33:39;;;;;;;;;;;20.40;55.50;;;;;;5061271;28;19933;-70
2023/05/27 00:36:07;;;;;;;;;;;20.30;55.60;;;;;;5055762;28;20536;-71
2023/05/27 00:38:33;;;;;;;;;;;20.30;55.60;;;;;;5063950;28;19959;-70
2023/05/27 00:41:01;;;;;;;;;;;20.20;55.60;;;;;;5056223;28;19932;-70
2023/05/27 00:43:27;;;;;;;;;;;20.20;55.50;;;;;;5061754;28;19928;-71
2023/05/27 00:45:54;;;;;;;;;;;20.10;55.60;;;;;;5062728;28;19932;-70
2023/05/27 00:48:21;;;;;;;;;;;20.10;55.70;;;;;;5062558;28;19929;-70
2023/05/27 00:50:47;;;;;;;;;;;20.00;55.70;;;;;;5068643;28;19928;-70
2023/05/27 00:53:16;;;;;;;;;;;20.00;55.80;;;;;;5062991;28;19951;-72
2023/05/27 00:55:42;;;;;;;;;;;20.00;55.80;;;;;;5068136;28;19951;-70
2023/05/27 00:58:09;;;;;;;;;;;20.00;55.90;;;;;;5058463;28;19936;-70
2023/05/27 01:00:37;;;;;;;;;;;19.90;56.00;;;;;;5064099;28;19935;-71
2023/05/27 01:03:04;;;;;;;;;;;19.90;56.00;;;;;;5070110;28;19977;-70
2023/05/27 01:05:30;;;;;;;;;;;19.90;56.10;;;;;;5061287;28;19928;-70
2023/05/27 01:08:04;;;;;;;;;;;19.80;55.90;;;;;;5067641;28;19936;-70
2023/05/27 01:10:36;;;;;;;;;;;19.80;56.10;;;;;;5064250;28;19936;-71
2023/05/27 01:13:07;;;;;;;;;;;19.70;56.60;;;;;;5062419;28;19935;-70
2023/05/27 01:15:34;;;;;;;;;;;19.70;56.10;;;;;;5061650;28;19928;-71
2023/05/27 01:18:02;;;;;;;;;;;19.70;56.30;;;;;;5063265;28;19936;-70
2023/05/27 01:20:29;;;;;;;;;;;19.60;56.30;;;;;;5061513;28;19928;-70
2023/05/27 01:22:59;;;;;;;;;;;19.60;56.30;;;;;;5065361;28;20336;-70
2023/05/27 01:25:25;;;;;;;;;;;19.50;56.30;;;;;;5067642;28;19928;-71
2023/05/27 01:27:52;;;;;;;;;;;19.50;56.30;;;;;;5066797;28;20002;-71
2023/05/27 01:30:19;;;;;;;;;;;19.40;56.20;;;;;;5063133;28;19932;-70
2023/05/27 01:32:50;;;;;;;;;;;19.40;56.40;;;;;;5057582;28;19951;-71
2023/05/27 01:35:22;;;;;;;;;;;19.40;56.40;;;;;;5067510;28;20035;-70
2023/05/27 01:37:50;;;;;;;;;;;19.30;56.40;;;;;;5068923;28;19928;-70
2023/05/27 01:40:18;;;;;;;;;;;19.30;56.60;;;;;;5071780;28;19928;-71
2023/05/27 01:42:45;;;;;;;;;;;19.20;56.70;;;;;;5061848;28;19932;-70
2023/05/27 01:45:12;;;;;;;;;;;19.20;56.70;;;;;;5065987;28;19962;-71
2023/05/27 01:47:39;;;;;;;;;;;19.20;56.60;;;;;;5059589;28;19932;-71
2023/05/27 01:50:06;;;;;;;;;;;19.20;56.70;;;;;;5063822;28;19936;-71
2023/05/27 01:52:33;;;;;;;;;;;19.10;56.80;;;;;;5060140;28;20453;-70
2023/05/27 01:54:59;;;;;;;;;;;19.10;56.80;;;;;;5065023;28;19936;-70
2023/05/27 01:57:27;;;;;;;;;;;19.10;56.70;;;;;;5057758;28;19940;-70
2023/05/27 01:59:54;;;;;;;;;;;19.00;56.70;;;;;;5062129;28;19928;-70
2023/05/27 02:02:20;;;;;;;;;;;19.00;56.70;;;;;;5061625;28;19929;-71
2023/05/27 02:04:47;;;;;;;;;;;18.90;56.70;;;;;;5061206;28;19929;-70
2023/05/27 02:07:13;;;;;;;;;;;18.90;56.80;;;;;;5064232;28;19928;-71
2023/05/27 02:09:40;;;;;;;;;;;18.90;56.90;;;;;;5063311;28;19928;-70
2023/05/27 02:12:07;;;;;;;;;;;18.90;56.90;;;;;;5067879;28;20384;-70
2023/05/27 02:14:38;;;;;;;;;;;18.80;56.80;;;;;;5060562;28;19931;-70
2023/05/27 02:17:05;;;;;;;;;;;18.80;56.80;;;;;;5067181;28;19934;-71
2023/05/27 02:19:31;;;;;;;;;;;18.80;56.80;;;;;;5057192;28;20380;-70
2023/05/27 02:21:58;;;;;;;;;;;18.70;56.80;;;;;;5059997;28;19928;-70
2023/05/27 02:24:24;;;;;;;;;;;18.70;57.00;;;;;;5069048;28;20457;-70
2023/05/27 02:26:51;;;;;;;;;;;18.70;56.90;;;;;;5061111;28;20513;-71
2023/05/27 02:29:17;;;;;;;;;;;18.60;56.90;;;;;;5059864;28;19929;-70
2023/05/27 02:31:45;;;;;;;;;;;18.60;57.00;;;;;;5063141;28;19933;-70
2023/05/27 02:34:12;;;;;;;;;;;18.60;57.00;;;;;;5064978;28;19932;-70
2023/05/27 02:36:38;;;;;;;;;;;18.50;57.00;;;;;;5060916;28;19932;-70
2023/05/27 02:39:05;;;;;;;;;;;18.60;57.00;;;;;;5065827;28;19939;-72
2023/05/27 02:41:32;;;;;;;;;;;18.50;57.00;;;;;;5061653;28;20466;-70
2023/05/27 02:43:58;;;;;;;;;;;18.50;57.10;;;;;;5063791;28;19928;-70
2023/05/27 02:46:25;;;;;;;;;;;18.40;57.00;;;;;;5057595;28;19947;-70
2023/05/27 02:48:52;;;;;;;;;;;18.40;57.00;;;;;;5061419;28;19928;-70
2023/05/27 02:51:19;;;;;;;;;;;18.40;57.00;;;;;;5060284;28;19935;-70
2023/05/27 02:53:46;;;;;;;;;;;18.40;57.10;;;;;;5060281;28;19936;-69
2023/05/27 02:56:12;;;;;;;;;;;18.40;57.20;;;;;;5065512;28;20306;-70
2023/05/27 02:58:39;;;;;;;;;;;18.30;57.10;;;;;;5064824;28;20654;-72
2023/05/27 03:01:05;;;;;;;;;;;18.30;57.20;;;;;;5059376;28;19936;-72
2023/05/27 03:03:32;;;;;;;;;;;18.30;57.20;;;;;;5060799;28;19931;-72
2023/05/27 03:06:00;;;;;;;;;;;18.20;57.20;;;;;;5061071;28;20672;-72
2023/05/27 03:08:26;;;;;;;;;;;18.20;57.10;;;;;;5066107;28;20550;-75
2023/05/27 03:10:53;;;;;;;;;;;18.20;57.20;;;;;;5055601;28;19935;-72
2023/05/27 03:13:19;;;;;;;;;;;18.10;57.20;;;;;;5062489;28;20736;-73
2023/05/27 03:15:46;;;;;;;;;;;18.10;57.30;;;;;;5059538;28;20740;-72
2023/05/27 03:18:12;;;;;;;;;;;18.10;57.30;;;;;;5062643;28;19935;-72
2023/05/27 03:20:39;;;;;;;;;;;18.10;57.40;;;;;;5062212;28;19939;-73
2023/05/27 03:23:07;;;;;;;;;;;18.00;57.40;;;;;;5061859;28;19932;-72
2023/05/27 03:25:34;;;;;;;;;;;18.00;57.50;;;;;;5058447;28;19928;-72
2023/05/27 03:28:00;;;;;;;;;;;17.90;57.50;;;;;;5060322;28;20047;-72
2023/05/27 03:30:27;;;;;;;;;;;18.00;57.60;;;;;;5057567;28;20470;-73
2023/05/27 03:32:54;;;;;;;;;;;17.90;57.70;;;;;;5060848;28;19933;-72
2023/05/27 03:35:20;;;;;;;;;;;17.90;57.70;;;;;;5059441;28;20386;-74
2023/05/27 03:37:47;;;;;;;;;;;17.90;57.80;;;;;;5062390;28;19936;-71
2023/05/27 03:40:15;;;;;;;;;;;17.80;57.80;;;;;;5066326;28;19935;-72
2023/05/27 03:42:41;;;;;;;;;;;17.80;58.40;;;;;;5061933;28;20490;-74
2023/05/27 03:45:08;;;;;;;;;;;17.80;57.90;;;;;;5056414;28;20583;-72
2023/05/27 03:47:35;;;;;;;;;;;17.70;57.90;;;;;;5060702;28;19955;-74
2023/05/27 03:50:02;;;;;;;;;;;17.70;57.80;;;;;;5058987;28;19971;-72
2023/05/27 03:52:29;;;;;;;;;;;17.70;57.90;;;;;;5060669;28;19932;-72
2023/05/27 03:54:55;;;;;;;;;;;17.70;57.90;;;;;;5061109;28;20377;-72
2023/05/27 03:57:23;;;;;;;;;;;17.60;57.90;;;;;;5061522;28;19933;-72
2023/05/27 03:59:50;;;;;;;;;;;17.60;57.90;;;;;;5058935;28;19932;-72
2023/05/27 04:02:16;;;;;;;;;;;17.50;57.90;;;;;;5057940;28;19935;-72
2023/05/27 04:04:43;;;;;;;;;;;17.60;57.90;;;;;;5054478;28;19929;-72
2023/05/27 04:07:09;;;;;;;;;;;17.50;58.00;;;;;;5071918;28;19928;-73
2023/05/27 04:09:36;;;;;;;;;;;17.50;57.90;;;;;;5061564;28;19940;-73
2023/05/27 04:12:02;;;;;;;;;;;17.50;58.00;;;;;;5061548;28;19936;-71
2023/05/27 04:14:30;;;;;;;;;;;17.50;58.00;;;;;;5062442;28;19939;-72
2023/05/27 04:16:58;;;;;;;;;;;17.40;57.90;;;;;;5064489;28;19936;-72
2023/05/27 04:19:24;;;;;;;;;;;17.40;58.50;;;;;;5068511;28;20746;-72
2023/05/27 04:21:51;;;;;;;;;;;17.40;57.90;;;;;;5064611;28;19932;-72
2023/05/27 04:24:17;;;;;;;;;;;17.40;57.90;;;;;;5059444;28;19932;-72
2023/05/27 04:26:45;;;;;;;;;;;17.40;57.90;;;;;;5057678;28;19929;-72
2023/05/27 04:29:12;;;;;;;;;;;17.30;57.80;;;;;;5061054;28;20302;-72
2023/05/27 04:31:40;;;;;;;;;;;17.30;57.80;;;;;;5061626;28;20330;-72
2023/05/27 04:34:07;;;;;;;;;;;17.30;57.90;;;;;;5059784;28;19928;-72
2023/05/27 04:36:34;;;;;;;;;;;17.30;57.80;;;;;;5064711;28;19989;-72
2023/05/27 04:39:01;;;;;;;;;;;17.20;57.90;;;;;;5060640;28;19929;-72
2023/05/27 04:41:28;;;;;;;;;;;17.20;57.80;;;;;;5060254;28;19928;-72
2023/05/27 04:43:54;;;;;;;;;;;17.20;57.90;;;;;;5059023;28;20723;-72
2023/05/27 04:46:21;;;;;;;;;;;17.20;58.00;;;;;;5058417;28;19932;-72
2023/05/27 04:48:50;;;;;;;;;;;17.20;58.00;;;;;;5063432;28;19932;-72
2023/05/27 04:51:17;;;;;;;;;;;17.20;58.00;;;;;;5070608;28;19938;-72
2023/05/27 04:53:44;;;;;;;;;;;17.10;58.00;;;;;;5071914;28;19935;-73
2023/05/27 04:56:14;;;;;;;;;;;17.10;58.00;;;;;;5068964;28;19928;-73
2023/05/27 04:58:42;;;;;;;;;;;17.10;58.10;;;;;;5056331;28;19928;-72
2023/05/27 05:01:16;;;;;;;;;;;17.10;58.10;;;;;;5056498;28;19932;-72
2023/05/27 05:03:51;;;;;;;;;;;17.10;58.10;;;;;;5056944;28;19935;-72
2023/05/27 05:06:22;;;;;;;;;;;17.00;58.10;;;;;;5054840;28;20368;-72
2023/05/27 05:08:49;;;;;;;;;;;17.00;58.20;;;;;;5052984;28;20562;-72
2023/05/27 05:11:15;;;;;;;;;;;17.10;58.20;;;;;;5058800;28;20013;-72
2023/05/27 05:13:42;;;;;;;;;;;17.00;58.20;;;;;;5054525;28;19940;-73
2023/05/27 05:16:08;;;;;;;;;;;17.00;58.80;;;;;;5055679;28;19927;-73
2023/05/27 05:18:35;;;;;;;;;;;17.00;58.20;;;;;;5055714;28;19928;-74
2023/05/27 05:21:01;;;;;;;;;;;17.00;58.10;;;;;;5058493;28;19936;-72
2023/05/27 05:23:29;;;;;;;;;;;17.00;58.10;;;;;;5046629;28;19939;-72
2023/05/27 05:25:58;;;;;;;;;;;17.00;58.10;;;;;;5051200;28;19929;-73
2023/05/27 05:28:25;;;;;;;;;;;16.90;58.10;;;;;;5058384;28;19986;-72
2023/05/27 05:30:51;;;;;;;;;;;17.00;58.10;;;;;;5048804;28;19960;-73
2023/05/27 05:33:18;;;;;;;;;;;16.90;58.10;;;;;;5057225;28;19932;-72
2023/05/27 05:35:44;;;;;;;;;;;16.90;58.10;;;;;;5051910;28;19966;-72
2023/05/27 05:38:13;;;;;;;;;;;16.90;58.10;;;;;;5053337;28;21239;-73
2023/05/27 05:40:40;;;;;;;;;;;16.90;58.10;;;;;;5055110;28;19936;-73
2023/05/27 05:43:07;;;;;;;;;;;16.90;58.10;;;;;;5061044;28;19951;-72
2023/05/27 05:45:33;;;;;;;;;;;16.90;58.20;;;;;;5056236;28;19958;-72
2023/05/27 05:48:00;;;;;;;;;;;16.90;58.20;;;;;;5058939;28;19924;-71
2023/05/27 05:50:27;;;;;;;;;;;16.90;58.10;;;;;;5053144;28;20409;-73
2023/05/27 05:52:53;;;;;;;;;;;16.90;58.00;;;;;;5057791;28;20077;-72
2023/05/27 05:55:20;;;;;;;;;;;16.90;57.90;;;;;;5050106;28;19975;-74
2023/05/27 05:57:48;;;;;;;;;;;16.90;57.90;;;;;;5049193;28;20496;-72
2023/05/27 06:00:15;;;;;;;;;;;16.90;57.80;;;;;;5056187;28;19935;-72
2023/05/27 06:02:41;;;;;;;;;;;16.90;57.80;;;;;;5056672;28;19932;-74
2023/05/27 06:05:08;;;;;;;;;;;16.90;57.80;;;;;;5050656;28;19940;-72
2023/05/27 06:07:35;;;;;;;;;;;16.90;57.80;;;;;;5056632;28;20299;-73
2023/05/27 06:10:01;;;;;;;;;;;16.90;57.70;;;;;;5051439;28;19932;-72
2023/05/27 06:12:28;;;;;;;;;;;16.90;57.70;;;;;;5052875;28;19925;-73
2023/05/27 06:14:56;;;;;;;;;;;16.90;57.70;;;;;;5050409;28;20656;-72
2023/05/27 06:17:22;;;;;;;;;;;16.90;57.70;;;;;;5049663;28;20127;-72
2023/05/27 06:19:49;;;;;;;;;;;16.90;57.70;;;;;;5054905;28;19958;-72
2023/05/27 06:22:15;;;;;;;;;;;16.90;57.70;;;;;;5053350;28;19925;-73
2023/05/27 06:24:42;;;;;;;;;;;16.90;57.70;;;;;;5051382;28;20008;-73
2023/05/27 06:27:08;;;;;;;;;;;16.90;57.70;;;;;;5051395;28;19959;-74
2023/05/27 06:29:35;;;;;;;;;;;16.90;57.80;;;;;;5060162;28;19928;-73
2023/05/27 06:32:03;;;;;;;;;;;16.90;57.70;;;;;;5057249;28;19932;-73
2023/05/27 06:34:29;;;;;;;;;;;16.90;57.70;;;;;;5055410;28;20409;-73
2023/05/27 06:36:56;;;;;;;;;;;16.90;57.60;;;;;;5053827;28;19925;-73
2023/05/27 06:39:23;;;;;;;;;;;16.90;57.60;;;;;;5060355;28;19928;-73
2023/05/27 06:41:49;;;;;;;;;;;16.90;57.60;;;;;;5052635;28;20027;-73
2023/05/27 06:44:16;;;;;;;;;;;16.90;57.60;;;;;;5052638;28;19928;-72
2023/05/27 06:46:42;;;;;;;;;;;16.90;57.50;;;;;;5049269;28;20042;-73
2023/05/27 06:49:10;;;;;;;;;;;16.90;57.50;;;;;;5055728;28;19928;-73
2023/05/27 06:51:37;;;;;;;;;;;16.90;57.50;;;;;;5053901;28;19936;-73
2023/05/27 06:54:03;;;;;;;;;;;16.90;57.50;;;;;;5061290;28;19928;-74
2023/05/27 06:56:30;;;;;;;;;;;17.00;57.50;;;;;;5057786;28;19939;-73
2023/05/27 06:58:56;;;;;;;;;;;17.00;57.50;;;;;;5059395;28;19962;-74
2023/05/27 07:01:23;;;;;;;;;;;17.00;57.40;;;;;;5055436;28;19932;-73
2023/05/27 07:03:49;;;;;;;;;;;17.00;57.30;;;;;;5060310;28;19935;-72
2023/05/27 07:06:17;;;;;;;;;;;17.00;57.30;;;;;;5049768;28;19932;-73
2023/05/27 07:08:44;;;;;;;;;;;17.00;57.30;;;;;;5047785;28;19972;-73
2023/05/27 07:11:10;;;;;;;;;;;17.00;57.20;;;;;;5054609;28;19928;-72
2023/05/27 07:13:37;;;;;;;;;;;17.00;57.20;;;;;;5049024;28;19932;-73
2023/05/27 07:16:04;;;;;;;;;;;17.00;57.20;;;;;;5049633;28;19970;-71
2023/05/27 07:18:30;;;;;;;;;;;17.00;57.80;;;;;;5053879;28;19928;-73
2023/05/27 07:20:57;;;;;;;;;;;17.00;57.20;;;;;;5050674;28;19937;-75
2023/05/27 07:23:24;;;;;;;;;;;17.00;57.20;;;;;;5050395;28;19932;-73
2023/05/27 07:25:51;;;;;;;;;;;17.00;57.20;;;;;;5052028;28;19935;-74
2023/05/27 07:28:18;;;;;;;;;;;17.10;57.20;;;;;;5051502;28;19935;-74
2023/05/27 07:30:44;;;;;;;;;;;17.10;57.30;;;;;;5045390;28;20314;-75
2023/05/27 07:33:11;;;;;;;;;;;17.10;57.20;;;;;;5047320;28;20318;-75
2023/05/27 07:35:37;;;;;;;;;;;17.10;57.30;;;;;;5053064;28;19932;-74
2023/05/27 07:38:04;;;;;;;;;;;17.20;57.00;;;;;;5045517;28;19929;-74
2023/05/27 07:40:32;;;;;;;;;;;17.40;57.20;;;;;;5059181;28;19933;-73
2023/05/27 07:42:58;;;;;;;;;;;17.50;56.90;;;;;;5061793;28;19929;-75
2023/05/27 07:45:25;;;;;;;;;;;17.50;57.10;;;;;;5057022;28;19990;-73
2023/05/27 07:47:52;;;;;;;;;;;17.40;57.00;;;;;;5052023;28;19936;-73
2023/05/27 07:50:18;;;;;;;;;;;17.40;57.10;;;;;;5060400;28;19929;-73
2023/05/27 07:52:45;;;;;;;;;;;17.30;57.20;;;;;;5065485;28;19935;-73
2023/05/27 07:55:12;;;;;;;;;;;17.30;57.40;;;;;;5065510;28;19928;-76
2023/05/27 07:57:41;;;;;;;;;;;17.30;57.40;;;;;;5065187;28;20019;-73
2023/05/27 08:00:08;;;;;;;;;;;17.30;57.50;;;;;;5065854;28;19928;-72
2023/05/27 08:02:35;;;;;;;;;;;17.30;57.50;;;;;;5059470;28;19935;-73
2023/05/27 08:05:01;;;;;;;;;;;17.30;57.50;;;;;;5057597;28;19929;-73
2023/05/27 08:07:28;;;;;;;;;;;17.30;57.50;;;;;;5064754;28;19927;-73
2023/05/27 08:09:54;;;;;;;;;;;17.30;57.50;;;;;;5062086;28;19928;-74
2023/05/27 08:12:21;;;;;;;;;;;17.30;57.50;;;;;;5063745;28;19935;-74
2023/05/27 08:14:49;;;;;;;;;;;17.40;58.10;;;;;;5057393;28;19932;-74
2023/05/27 08:17:16;;;;;;;;;;;17.30;57.30;;;;;;5057992;28;19928;-74
2023/05/27 08:19:42;;;;;;;;;;;17.40;57.40;;;;;;5060093;28;19928;-73
2023/05/27 08:22:09;;;;;;;;;;;17.40;57.50;;;;;;5063664;28;19928;-74
2023/05/27 08:24:36;;;;;;;;;;;17.40;57.40;;;;;;5065192;28;19935;-73
2023/05/27 08:27:05;;;;;;;;;;;17.40;57.20;;;;;;5063889;28;19928;-73
2023/05/27 08:29:32;;;;;;;;;;;17.40;57.30;;;;;;5064651;28;20646;-72
2023/05/27 08:32:00;;;;;;;;;;;17.50;57.40;;;;;;5066365;28;20321;-74
2023/05/27 08:34:27;;;;;;;;;;;17.50;57.40;;;;;;5069905;28;19928;-74
2023/05/27 08:36:53;;;;;;;;;;;17.50;57.40;;;;;;5067496;28;19932;-74
2023/05/27 08:39:20;;;;;;;;;;;17.60;57.60;;;;;;5068354;28;20034;-75
2023/05/27 08:41:47;;;;;;;;;;;17.60;57.60;;;;;;5063147;28;19955;-73
2023/05/27 08:44:13;;;;;;;;;;;17.60;57.60;;;;;;5061323;28;20023;-73
2023/05/27 08:46:41;;;;;;;;;;;17.60;57.60;;;;;;5065322;28;19929;-73
2023/05/27 08:49:09;;;;;;;;;;;17.70;57.60;;;;;;5067013;28;19932;-74
2023/05/27 08:51:38;;;;;;;;;;;17.70;57.60;;;;;;5066892;28;20329;-75
2023/05/27 08:54:05;;;;;;;;;;;17.70;57.50;;;;;;5061366;28;19956;-74
2023/05/27 08:56:33;;;;;;;;;;;17.70;57.60;;;;;;5064862;28;19928;-74
2023/05/27 08:59:00;;;;;;;;;;;17.80;57.70;;;;;;5064338;28;19925;-73
2023/05/27 09:01:28;;;;;;;;;;;17.80;57.70;;;;;;5058759;28;19935;-74
2023/05/27 09:03:55;;;;;;;;;;;17.90;57.50;;;;;;5068018;28;20541;-74
2023/05/27 09:06:23;;;;;;;;;;;17.90;57.60;;;;;;5062820;28;20416;-74
2023/05/27 09:08:49;;;;;;;;;;;17.90;57.70;;;;;;5066499;28;19928;-73
2023/05/27 09:11:27;;;;;;;;;;;18.00;57.70;;;;;;5054846;28;20739;-74
2023/05/27 09:13:54;;;;;;;;;;;18.00;57.80;;;;;;5058908;28;19944;-73
2023/05/27 09:16:21;;;;;;;;;;;18.00;57.70;;;;;;5060441;28;19935;-74
2023/05/27 09:18:48;;;;;;;;;;;18.10;57.60;;;;;;5061972;28;20026;-73
2023/05/27 09:21:14;;;;;;;;;;;18.10;57.60;;;;;;5058484;28;20623;-74
2023/05/27 09:23:42;;;;;;;;;;;18.20;57.80;;;;;;5062472;28;19929;-75
2023/05/27 09:26:10;;;;;;;;;;;18.20;57.80;;;;;;5047327;28;20689;-74
2023/05/27 09:28:37;;;;;;;;;;;18.30;57.70;;;;;;5051291;28;20019;-73
2023/05/27 09:31:05;;;;;;;;;;;18.30;57.60;;;;;;5061376;28;19935;-73
2023/05/27 09:33:33;;;;;;;;;;;18.30;57.60;;;;;;5060974;28;19929;-73
2023/05/27 09:35:59;;;;;;;;;;;18.40;57.60;;;;;;5067577;28;20043;-73
2023/05/27 09:38:28;;;;;;;;;;;18.50;57.70;;;;;;5071621;28;19928;-73
2023/05/27 09:40:56;;;;;;;;;;;18.50;57.40;;;;;;5066220;28;19955;-73
2023/05/27 09:43:24;;;;;;;;;;;18.50;57.90;;;;;;5056735;28;19938;-73
2023/05/27 09:45:52;;;;;;;;;;;18.60;57.30;;;;;;5061870;28;19936;-73
2023/05/27 09:48:19;;;;;;;;;;;18.60;56.90;;;;;;5063164;28;19939;-73
2023/05/27 09:50:46;;;;;;;;;;;18.70;57.00;;;;;;5062128;28;19936;-74
2023/05/27 09:53:13;;;;;;;;;;;18.70;56.70;;;;;;5062624;28;20520;-73
2023/05/27 09:55:41;;;;;;;;;;;18.80;56.50;;;;;;5063773;28;20355;-73
2023/05/27 09:58:09;;;;;;;;;;;18.90;56.90;;;;;;5066211;28;20015;-74
2023/05/27 10:00:36;;;;;;;;;;;19.00;56.90;;;;;;5061264;28;19928;-74
2023/05/27 10:03:03;;;;;;;;;;;19.00;56.90;;;;;;5060999;28;20659;-73
2023/05/27 10:05:30;;;;;;;;;;;19.10;56.90;;;;;;5062612;28;20627;-73
2023/05/27 10:07:56;;;;;;;;;;;19.10;56.60;;;;;;5062965;28;20290;-74
2023/05/27 10:10:23;;;;;;;;;;;19.20;56.30;;;;;;5065826;28;19929;-74
2023/05/27 10:12:51;;;;;;;;;;;19.20;56.00;;;;;;5064809;28;19935;-76
2023/05/27 10:15:26;;;;;;;;;;;19.30;56.10;;;;;;5055265;28;19928;-74
2023/05/27 10:17:54;;;;;;;;;;;19.40;56.10;;;;;;5059207;28;20345;-74
2023/05/27 10:20:24;;;;;;;;;;;19.50;55.80;;;;;;5060130;28;19952;-74
2023/05/27 10:22:52;;;;;;;;;;;19.50;55.80;;;;;;5061901;28;19942;-73
2023/05/27 10:25:19;;;;;;;;;;;19.60;55.80;;;;;;5066850;28;19939;-73
2023/05/27 10:27:46;;;;;;;;;;;19.60;55.70;;;;;;5060127;28;19935;-74
2023/05/27 10:30:13;;;;;;;;;;;19.70;55.80;;;;;;5059332;28;20008;-73
2023/05/27 10:32:44;;;;;;;;;;;19.80;55.70;;;;;;5058483;28;19979;-73
2023/05/27 10:35:11;;;;;;;;;;;19.90;55.60;;;;;;5061386;28;19929;-73
2023/05/27 10:37:38;;;;;;;;;;;19.90;55.90;;;;;;5069662;28;19935;-74
2023/05/27 10:40:06;;;;;;;;;;;20.00;55.90;;;;;;5063324;28;19936;-74
2023/05/27 10:42:33;;;;;;;;;;;20.00;55.40;;;;;;5062150;28;20283;-74
2023/05/27 10:45:06;;;;;;;;;;;20.10;55.20;;;;;;5059735;28;20657;-75
2023/05/27 10:47:35;;;;;;;;;;;20.20;55.10;;;;;;5064249;28;19986;-74
2023/05/27 10:50:11;;;;;;;;;;;20.20;54.90;;;;;;5051883;28;19929;-73
2023/05/27 10:52:38;;;;;;;;;;;20.30;55.00;;;;;;5063309;28;20011;-74
2023/05/27 10:55:05;;;;;;;;;;;20.40;55.10;;;;;;5063593;28;19929;-75
2023/05/27 10:57:32;;;;;;;;;;;20.40;54.70;;;;;;5061756;28;20469;-73
2023/05/27 11:00:01;;;;;;;;;;;20.50;54.90;;;;;;5063204;28;19935;-74
2023/05/27 11:02:30;;;;;;;;;;;20.50;54.90;;;;;;5058265;28;20010;-74
2023/05/27 11:04:57;;;;;;;;;;;20.60;54.90;;;;;;5059409;28;19928;-75
2023/05/27 11:07:25;;;;;;;;;;;20.70;54.80;;;;;;5063195;28;19932;-74
2023/05/27 11:09:53;;;;;;;;;;;20.70;54.80;;;;;;5065987;28;20028;-73
2023/05/27 11:12:20;;;;;;;;;;;20.80;54.70;;;;;;5061503;28;19938;-74
2023/05/27 11:14:47;;;;;;;;;;;20.80;54.60;;;;;;5058381;28;19932;-74
2023/05/27 11:17:14;;;;;;;;;;;20.90;54.70;;;;;;5066178;28;20394;-74
2023/05/27 11:19:41;;;;;;;;;;;21.00;54.50;;;;;;5069484;28;19928;-74
2023/05/27 11:22:08;;;;;;;;;;;21.00;54.20;;;;;;5063398;28;19942;-74
2023/05/27 11:24:35;;;;;;;;;;;21.10;54.20;;;;;;5069215;28;19935;-74
2023/05/27 11:27:08;;;;;;;;;;;21.20;54.10;;;;;;5060198;28;19936;-74
2023/05/27 11:29:35;;;;;;;;;;;21.20;54.00;;;;;;5056416;28;19928;-74
2023/05/27 11:32:01;;;;;;;;;;;21.30;53.90;;;;;;5061832;28;19932;-74
2023/05/27 11:34:28;;;;;;;;;;;21.30;53.90;;;;;;5067904;28;19928;-75
2023/05/27 11:36:55;;;;;;;;;;;21.40;53.90;;;;;;5059478;28;19935;-75
2023/05/27 11:39:22;;;;;;;;;;;21.50;53.60;;;;;;5061984;28;19957;-75
2023/05/27 11:41:51;;;;;;;;;;;21.50;53.50;;;;;;5061160;28;20330;-74
2023/05/27 11:44:18;;;;;;;;;;;21.60;53.40;;;;;;5057193;28;19959;-74
2023/05/27 11:46:46;;;;;;;;;;;21.70;53.40;;;;;;5060577;28;19929;-74
2023/05/27 11:49:13;;;;;;;;;;;21.70;53.40;;;;;;5073117;28;20352;-75
2023/05/27 11:51:41;;;;;;;;;;;21.80;53.10;;;;;;5056567;28;20365;-74
2023/05/27 11:54:07;;;;;;;;;;;21.80;52.70;;;;;;5070279;28;19932;-74
2023/05/27 11:56:34;;;;;;;;;;;21.90;52.60;;;;;;5063420;28;19951;-74
2023/05/27 11:59:02;;;;;;;;;;;21.90;52.50;;;;;;5072121;28;19928;-74
2023/05/27 12:01:29;;;;;;;;;;;22.00;52.70;;;;;;5063628;28;19928;-74
2023/05/27 12:03:55;;;;;;;;;;;22.00;52.50;;;;;;5071366;28;20515;-74
2023/05/27 12:06:22;;;;;;;;;;;22.10;52.40;;;;;;5061334;28;20058;-71
2023/05/27 12:08:48;;;;;;;;;;;22.20;52.20;;;;;;5056045;28;19951;-70
2023/05/27 12:11:15;;;;;;;;;;;22.80;50.20;;;;;;5062787;28;19933;-70
2023/05/27 12:13:42;;;;;;;;;;;23.10;49.60;;;;;;5061102;28;19935;-69
2023/05/27 12:16:10;;;;;;;;;;;23.40;49.00;;;;;;5056034;28;19929;-71
2023/05/27 12:18:38;;;;;;;;;;;23.60;48.60;;;;;;5056293;28;20462;-69
2023/05/27 12:21:05;;;;;;;;;;;23.80;48.20;;;;;;5057063;28;19932;-70
2023/05/27 12:23:31;;;;;;;;;;;24.00;48.00;;;;;;5054018;28;20006;-70
2023/05/27 12:25:58;;;;;;;;;;;24.10;47.50;;;;;;5057717;28;19935;-69
2023/05/27 12:28:25;;;;;;;;;;;24.30;47.30;;;;;;5056892;28;19932;-70
2023/05/27 12:30:52;;;;;;;;;;;24.40;47.20;;;;;;5052223;28;19939;-70
2023/05/27 12:33:20;;;;;;;;;;;24.50;47.00;;;;;;5054862;28;19932;-70
2023/05/27 12:35:46;;;;;;;;;;;24.60;46.80;;;;;;5053110;28;19936;-69
2023/05/27 12:38:13;;;;;;;;;;;24.70;46.70;;;;;;5063372;28;19929;-70
2023/05/27 12:40:39;;;;;;;;;;;24.70;46.50;;;;;;5057708;28;19935;-70
2023/05/27 12:43:06;;;;;;;;;;;24.80;46.40;;;;;;5057231;28;19929;-70
2023/05/27 12:45:33;;;;;;;;;;;24.90;46.20;;;;;;5055978;28;20470;-70
2023/05/27 12:47:59;;;;;;;;;;;24.90;45.90;;;;;;5058227;28;19924;-70
2023/05/27 12:50:27;;;;;;;;;;;24.90;45.60;;;;;;5055882;28;20359;-70
2023/05/27 12:52:54;;;;;;;;;;;25.00;45.60;;;;;;5059605;28;19931;-70
2023/05/27 12:55:22;;;;;;;;;;;25.10;45.60;;;;;;5059291;28;19934;-70
2023/05/27 12:57:49;;;;;;;;;;;25.10;45.50;;;;;;5061708;28;19928;-70
2023/05/27 13:00:16;;;;;;;;;;;25.20;45.50;;;;;;5058448;28;19935;-70
2023/05/27 13:02:43;;;;;;;;;;;25.20;45.40;;;;;;5061439;28;19928;-70
2023/05/27 13:05:10;;;;;;;;;;;25.20;45.40;;;;;;5051760;28;19936;-70
2023/05/27 13:07:39;;;;;;;;;;;25.30;45.30;;;;;;5058319;28;19935;-71
2023/05/27 13:10:06;;;;;;;;;;;25.30;45.10;;;;;;5054844;28;20307;-71
2023/05/27 13:12:33;;;;;;;;;;;25.40;44.80;;;;;;5066416;28;19936;-70
2023/05/27 13:15:01;;;;;;;;;;;25.40;44.70;;;;;;5054409;28;19955;-69
2023/05/27 13:17:27;;;;;;;;;;;25.40;44.60;;;;;;5052616;28;19935;-70
2023/05/27 13:19:54;;;;;;;;;;;25.50;44.60;;;;;;5056450;28;19944;-70
2023/05/27 13:22:21;;;;;;;;;;;25.50;44.70;;;;;;5054546;28;19939;-71
2023/05/27 13:24:49;;;;;;;;;;;25.60;44.50;;;;;;5059212;28;20295;-70
2023/05/27 13:27:15;;;;;;;;;;;25.60;44.40;;;;;;5053548;28;20333;-69
2023/05/27 13:29:42;;;;;;;;;;;25.70;44.50;;;;;;5061289;28;19936;-70
2023/05/27 13:32:08;;;;;;;;;;;25.70;44.60;;;;;;5062934;28;19928;-70
2023/05/27 13:34:35;;;;;;;;;;;25.70;44.60;;;;;;5056440;28;20347;-72
2023/05/27 13:37:02;;;;;;;;;;;25.80;45.40;;;;;;5052474;28;19943;-70
2023/05/27 13:39:29;;;;;;;;;;;25.80;45.10;;;;;;5056979;28;19933;-70
2023/05/27 13:41:57;;;;;;;;;;;25.90;44.60;;;;;;5055077;28;19948;-69
2023/05/27 13:44:24;;;;;;;;;;;25.90;44.50;;;;;;5057265;28;19928;-71
2023/05/27 13:46:50;;;;;;;;;;;26.00;44.50;;;;;;5057619;28;19928;-71
2023/05/27 13:49:17;;;;;;;;;;;26.00;44.30;;;;;;5060675;28;19936;-71
2023/05/27 13:51:44;;;;;;;;;;;26.00;44.20;;;;;;5054421;28;19932;-72
2023/05/27 13:54:10;;;;;;;;;;;26.10;45.00;;;;;;5051317;28;19938;-71
2023/05/27 13:56:37;;;;;;;;;;;26.10;44.70;;;;;;5052480;28;19963;-71
2023/05/27 13:59:05;;;;;;;;;;;26.20;45.00;;;;;;5054914;28;20314;-72
2023/05/27 14:01:32;;;;;;;;;;;26.20;45.30;;;;;;5048316;28;20300;-70
2023/05/27 14:03:59;;;;;;;;;;;26.20;45.00;;;;;;5054709;28;19978;-71
2023/05/27 14:06:25;;;;;;;;;;;26.30;44.70;;;;;;5047672;28;19935;-71
2023/05/27 14:08:52;;;;;;;;;;;26.40;44.80;;;;;;5057814;28;19928;-71
2023/05/27 14:11:19;;;;;;;;;;;26.40;44.50;;;;;;5054384;28;20007;-72
2023/05/27 14:13:45;;;;;;;;;;;26.40;44.50;;;;;;5053505;28;19936;-72
2023/05/27 14:16:14;;;;;;;;;;;26.50;44.70;;;;;;5056562;28;20033;-71